sensor_id;sensor_type;location;lat;lon;timestamp;P1;durP1;ratioP1;P2;durP2;ratioP2
75854;SDS011;64502;59.976;30.316;2024-03-23T00:55:02;1.85;;;0.50;;
75854;SDS011;64502;59.976;30.316;2024-03-23T00:57:28;2.58;;;0.55;;
75854;SDS011;64502;59.976;30.316;2024-03-23T00:59:53;2.78;;;0.50;;
75854;SDS011;64502;59.976;30.316;2024-03-23T01:02:19;1.85;;;0.50;;
75854;SDS011;64502;59.976;30.316;2024-03-23T01:04:45;3.40;;;0.70;;
75854;SDS011;64502;59.976;30.316;2024-03-23T01:07:11;3.72;;;1.00;;
75854;SDS011;64502;59.976;30.316;2024-03-23T01:09:55;1.77;;;0.77;;
75854;SDS011;64502;59.976;30.316;2024-03-23T01:12:20;3.78;;;1.02;;
75854;SDS011;64502;59.976;30.316;2024-03-23T01:14:46;1.58;;;0.40;;
75854;SDS011;64502;59.976;30.316;2024-03-23T01:17:12;2.05;;;0.35;;
75854;SDS011;64502;59.976;30.316;2024-03-23T01:19:38;1.77;;;0.60;;
75854;SDS011;64502;59.976;30.316;2024-03-23T01:22:04;4.57;;;0.85;;
75854;SDS011;64502;59.976;30.316;2024-03-23T01:24:30;2.17;;;0.30;;
75854;SDS011;64502;59.976;30.316;2024-03-23T01:26:56;3.33;;;0.57;;
75854;SDS011;64502;59.976;30.316;2024-03-23T01:29:22;2.05;;;0.50;;
75854;SDS011;64502;59.976;30.316;2024-03-23T01:31:47;2.80;;;0.85;;
75854;SDS011;64502;59.976;30.316;2024-03-23T01:34:13;4.43;;;0.65;;
75854;SDS011;64502;59.976;30.316;2024-03-23T01:36:39;3.00;;;0.70;;
75854;SDS011;64502;59.976;30.316;2024-03-23T01:39:05;4.03;;;0.95;;
75854;SDS011;64502;59.976;30.316;2024-03-23T01:41:30;3.63;;;0.95;;
75854;SDS011;64502;59.976;30.316;2024-03-23T01:43:56;2.88;;;1.10;;
75854;SDS011;64502;59.976;30.316;2024-03-23T01:46:22;3.38;;;0.70;;
75854;SDS011;64502;59.976;30.316;2024-03-23T01:48:47;2.92;;;0.70;;
75854;SDS011;64502;59.976;30.316;2024-03-23T01:51:14;3.63;;;1.08;;
75854;SDS011;64502;59.976;30.316;2024-03-23T01:53:40;3.15;;;0.80;;
75854;SDS011;64502;59.976;30.316;2024-03-23T01:56:06;3.92;;;0.85;;
75854;SDS011;64502;59.976;30.316;2024-03-23T01:58:32;2.33;;;0.70;;
75854;SDS011;64502;59.976;30.316;2024-03-23T02:00:58;4.22;;;1.60;;
75854;SDS011;64502;59.976;30.316;2024-03-23T02:03:24;2.22;;;1.00;;
75854;SDS011;64502;59.976;30.316;2024-03-23T02:05:51;2.38;;;0.47;;
75854;SDS011;64502;59.976;30.316;2024-03-23T02:08:18;2.70;;;0.73;;
75854;SDS011;64502;59.976;30.316;2024-03-23T02:10:48;2.75;;;0.45;;
75854;SDS011;64502;59.976;30.316;2024-03-23T02:13:14;3.03;;;0.40;;
75854;SDS011;64502;59.976;30.316;2024-03-23T02:15:41;1.75;;;0.20;;
75854;SDS011;64502;59.976;30.316;2024-03-23T02:18:07;2.15;;;0.20;;
75854;SDS011;64502;59.976;30.316;2024-03-23T02:20:34;1.80;;;0.13;;
75854;SDS011;64502;59.976;30.316;2024-03-23T02:23:03;1.23;;;0.10;;
75854;SDS011;64502;59.976;30.316;2024-03-23T02:25:31;1.30;;;0.65;;
75854;SDS011;64502;59.976;30.316;2024-03-23T02:27:57;1.30;;;0.28;;
75854;SDS011;64502;59.976;30.316;2024-03-23T02:30:24;1.25;;;0.30;;
75854;SDS011;64502;59.976;30.316;2024-03-23T02:32:50;1.30;;;0.22;;
75854;SDS011;64502;59.976;30.316;2024-03-23T02:35:16;1.50;;;0.30;;
75854;SDS011;64502;59.976;30.316;2024-03-23T02:37:42;2.05;;;0.40;;
75854;SDS011;64502;59.976;30.316;2024-03-23T02:40:07;1.40;;;0.30;;
75854;SDS011;64502;59.976;30.316;2024-03-23T02:42:33;1.90;;;0.20;;
75854;SDS011;64502;59.976;30.316;2024-03-23T02:44:59;0.93;;;0.20;;
75854;SDS011;64502;59.976;30.316;2024-03-23T02:47:24;1.42;;;0.40;;
75854;SDS011;64502;59.976;30.316;2024-03-23T02:49:50;1.30;;;0.25;;
75854;SDS011;64502;59.976;30.316;2024-03-23T02:52:15;1.17;;;0.20;;
75854;SDS011;64502;59.976;30.316;2024-03-23T02:54:41;1.00;;;0.25;;
75854;SDS011;64502;59.976;30.316;2024-03-23T02:57:10;1.67;;;0.30;;
75854;SDS011;64502;59.976;30.316;2024-03-23T02:59:36;1.05;;;0.10;;
75854;SDS011;64502;59.976;30.316;2024-03-23T03:02:02;0.80;;;0.22;;
75854;SDS011;64502;59.976;30.316;2024-03-23T03:04:29;0.90;;;0.10;;
75854;SDS011;64502;59.976;30.316;2024-03-23T03:06:55;0.75;;;0.10;;
75854;SDS011;64502;59.976;30.316;2024-03-23T03:09:21;0.90;;;0.20;;
75854;SDS011;64502;59.976;30.316;2024-03-23T03:11:47;1.05;;;0.20;;
75854;SDS011;64502;59.976;30.316;2024-03-23T03:14:13;0.70;;;0.10;;
75854;SDS011;64502;59.976;30.316;2024-03-23T03:16:43;0.85;;;0.10;;
75854;SDS011;64502;59.976;30.316;2024-03-23T03:19:08;0.98;;;0.13;;
75854;SDS011;64502;59.976;30.316;2024-03-23T03:21:35;1.75;;;0.10;;
75854;SDS011;64502;59.976;30.316;2024-03-23T03:24:02;1.77;;;0.13;;
75854;SDS011;64502;59.976;30.316;2024-03-23T03:26:27;1.92;;;0.10;;
75854;SDS011;64502;59.976;30.316;2024-03-23T03:28:53;1.33;;;0.22;;
75854;SDS011;64502;59.976;30.316;2024-03-23T03:31:19;2.08;;;0.30;;
75854;SDS011;64502;59.976;30.316;2024-03-23T03:33:45;1.05;;;0.20;;
75854;SDS011;64502;59.976;30.316;2024-03-23T03:36:11;1.13;;;0.30;;
75854;SDS011;64502;59.976;30.316;2024-03-23T03:38:36;1.17;;;0.20;;
75854;SDS011;64502;59.976;30.316;2024-03-23T03:41:03;1.30;;;0.25;;
75854;SDS011;64502;59.976;30.316;2024-03-23T03:43:30;1.00;;;0.20;;
75854;SDS011;64502;59.976;30.316;2024-03-23T03:45:56;0.70;;;0.50;;
75854;SDS011;64502;59.976;30.316;2024-03-23T03:48:23;1.23;;;0.35;;
75854;SDS011;64502;59.976;30.316;2024-03-23T03:51:09;1.30;;;0.22;;
75854;SDS011;64502;59.976;30.316;2024-03-23T03:53:35;0.95;;;0.30;;
75854;SDS011;64502;59.976;30.316;2024-03-23T03:56:00;1.75;;;0.32;;
75854;SDS011;64502;59.976;30.316;2024-03-23T03:58:45;1.05;;;0.20;;
75854;SDS011;64502;59.976;30.316;2024-03-23T04:01:10;1.58;;;0.20;;
75854;SDS011;64502;59.976;30.316;2024-03-23T04:03:36;0.75;;;0.10;;
75854;SDS011;64502;59.976;30.316;2024-03-23T04:06:02;2.50;;;0.25;;
75854;SDS011;64502;59.976;30.316;2024-03-23T04:08:28;1.15;;;0.28;;
75854;SDS011;64502;59.976;30.316;2024-03-23T04:10:53;1.13;;;0.30;;
75854;SDS011;64502;59.976;30.316;2024-03-23T04:13:19;0.80;;;0.20;;
75854;SDS011;64502;59.976;30.316;2024-03-23T04:15:45;1.17;;;0.20;;
75854;SDS011;64502;59.976;30.316;2024-03-23T04:18:10;1.38;;;0.28;;
75854;SDS011;64502;59.976;30.316;2024-03-23T04:20:36;3.00;;;0.55;;
75854;SDS011;64502;59.976;30.316;2024-03-23T04:23:01;2.38;;;0.40;;
75854;SDS011;64502;59.976;30.316;2024-03-23T04:25:27;2.17;;;0.60;;
75854;SDS011;64502;59.976;30.316;2024-03-23T04:27:52;1.48;;;0.40;;
75854;SDS011;64502;59.976;30.316;2024-03-23T04:30:18;1.98;;;0.45;;
75854;SDS011;64502;59.976;30.316;2024-03-23T04:32:44;1.52;;;0.40;;
75854;SDS011;64502;59.976;30.316;2024-03-23T04:35:10;1.13;;;0.22;;
75854;SDS011;64502;59.976;30.316;2024-03-23T04:37:36;2.00;;;0.50;;
75854;SDS011;64502;59.976;30.316;2024-03-23T04:40:03;2.97;;;0.70;;
75854;SDS011;64502;59.976;30.316;2024-03-23T04:42:29;2.65;;;0.60;;
75854;SDS011;64502;59.976;30.316;2024-03-23T04:44:55;3.00;;;0.50;;
75854;SDS011;64502;59.976;30.316;2024-03-23T04:47:21;1.45;;;0.65;;
75854;SDS011;64502;59.976;30.316;2024-03-23T04:50:05;4.47;;;0.90;;
75854;SDS011;64502;59.976;30.316;2024-03-23T04:52:31;1.88;;;0.60;;
75854;SDS011;64502;59.976;30.316;2024-03-23T04:54:56;2.85;;;0.70;;
75854;SDS011;64502;59.976;30.316;2024-03-23T04:57:22;2.42;;;0.57;;
75854;SDS011;64502;59.976;30.316;2024-03-23T04:59:48;2.95;;;0.57;;
75854;SDS011;64502;59.976;30.316;2024-03-23T05:04:59;2.13;;;0.70;;
75854;SDS011;64502;59.976;30.316;2024-03-23T05:07:25;1.50;;;0.50;;
75854;SDS011;64502;59.976;30.316;2024-03-23T05:09:52;1.77;;;0.70;;
75854;SDS011;64502;59.976;30.316;2024-03-23T05:12:17;1.92;;;0.40;;
75854;SDS011;64502;59.976;30.316;2024-03-23T05:14:43;1.42;;;0.40;;
75854;SDS011;64502;59.976;30.316;2024-03-23T05:17:10;3.15;;;0.70;;
75854;SDS011;64502;59.976;30.316;2024-03-23T05:19:35;2.15;;;0.60;;
75854;SDS011;64502;59.976;30.316;2024-03-23T05:22:01;4.70;;;1.25;;
75854;SDS011;64502;59.976;30.316;2024-03-23T05:24:27;2.35;;;0.63;;
75854;SDS011;64502;59.976;30.316;2024-03-23T05:26:53;1.33;;;0.40;;
75854;SDS011;64502;59.976;30.316;2024-03-23T05:29:19;3.05;;;1.10;;
75854;SDS011;64502;59.976;30.316;2024-03-23T05:31:49;3.45;;;0.57;;
75854;SDS011;64502;59.976;30.316;2024-03-23T05:34:14;3.85;;;0.70;;
75854;SDS011;64502;59.976;30.316;2024-03-23T05:36:40;4.13;;;0.95;;
75854;SDS011;64502;59.976;30.316;2024-03-23T05:39:05;4.85;;;1.20;;
75854;SDS011;64502;59.976;30.316;2024-03-23T05:41:31;2.20;;;1.02;;
75854;SDS011;64502;59.976;30.316;2024-03-23T05:43:57;3.63;;;0.90;;
75854;SDS011;64502;59.976;30.316;2024-03-23T05:46:41;1.98;;;0.60;;
75854;SDS011;64502;59.976;30.316;2024-03-23T05:49:07;3.42;;;1.38;;
75854;SDS011;64502;59.976;30.316;2024-03-23T05:54:18;2.67;;;0.80;;
75854;SDS011;64502;59.976;30.316;2024-03-23T05:56:43;5.25;;;1.10;;
75854;SDS011;64502;59.976;30.316;2024-03-23T05:59:09;4.13;;;0.80;;
75854;SDS011;64502;59.976;30.316;2024-03-23T06:01:34;3.60;;;1.20;;
75854;SDS011;64502;59.976;30.316;2024-03-23T06:04:00;5.38;;;1.45;;
75854;SDS011;64502;59.976;30.316;2024-03-23T06:06:26;4.28;;;1.40;;
75854;SDS011;64502;59.976;30.316;2024-03-23T06:08:55;4.53;;;1.00;;
75854;SDS011;64502;59.976;30.316;2024-03-23T06:11:20;4.95;;;0.77;;
75854;SDS011;64502;59.976;30.316;2024-03-23T06:13:46;3.28;;;0.90;;
75854;SDS011;64502;59.976;30.316;2024-03-23T06:16:12;5.63;;;1.08;;
75854;SDS011;64502;59.976;30.316;2024-03-23T06:18:37;3.95;;;1.10;;
75854;SDS011;64502;59.976;30.316;2024-03-23T06:21:04;5.53;;;1.35;;
75854;SDS011;64502;59.976;30.316;2024-03-23T06:23:37;3.90;;;0.90;;
75854;SDS011;64502;59.976;30.316;2024-03-23T06:26:03;2.50;;;0.98;;
75854;SDS011;64502;59.976;30.316;2024-03-23T06:28:30;4.80;;;1.38;;
75854;SDS011;64502;59.976;30.316;2024-03-23T06:30:55;3.63;;;1.10;;
75854;SDS011;64502;59.976;30.316;2024-03-23T06:33:21;4.70;;;1.48;;
75854;SDS011;64502;59.976;30.316;2024-03-23T06:35:50;4.63;;;1.02;;
75854;SDS011;64502;59.976;30.316;2024-03-23T06:38:17;2.92;;;1.23;;
75854;SDS011;64502;59.976;30.316;2024-03-23T06:40:43;2.85;;;0.88;;
75854;SDS011;64502;59.976;30.316;2024-03-23T06:43:15;5.38;;;0.85;;
75854;SDS011;64502;59.976;30.316;2024-03-23T06:45:41;4.97;;;1.00;;
75854;SDS011;64502;59.976;30.316;2024-03-23T06:48:08;6.47;;;1.17;;
75854;SDS011;64502;59.976;30.316;2024-03-23T06:50:33;6.28;;;1.25;;
75854;SDS011;64502;59.976;30.316;2024-03-23T06:52:59;4.20;;;1.25;;
75854;SDS011;64502;59.976;30.316;2024-03-23T06:55:27;5.28;;;1.17;;
75854;SDS011;64502;59.976;30.316;2024-03-23T06:57:53;15.13;;;2.88;;
75854;SDS011;64502;59.976;30.316;2024-03-23T07:00:19;4.03;;;1.83;;
75854;SDS011;64502;59.976;30.316;2024-03-23T07:02:45;6.28;;;1.45;;
75854;SDS011;64502;59.976;30.316;2024-03-23T07:05:10;5.30;;;1.42;;
75854;SDS011;64502;59.976;30.316;2024-03-23T07:07:37;5.43;;;1.83;;
75854;SDS011;64502;59.976;30.316;2024-03-23T07:10:04;3.45;;;1.10;;
75854;SDS011;64502;59.976;30.316;2024-03-23T07:12:30;7.20;;;2.08;;
75854;SDS011;64502;59.976;30.316;2024-03-23T07:14:56;5.97;;;2.10;;
75854;SDS011;64502;59.976;30.316;2024-03-23T07:17:23;4.38;;;1.33;;
75854;SDS011;64502;59.976;30.316;2024-03-23T07:19:48;6.32;;;1.60;;
75854;SDS011;64502;59.976;30.316;2024-03-23T07:22:15;5.25;;;1.55;;
75854;SDS011;64502;59.976;30.316;2024-03-23T07:25:00;5.85;;;1.52;;
75854;SDS011;64502;59.976;30.316;2024-03-23T07:27:30;3.33;;;1.40;;
75854;SDS011;64502;59.976;30.316;2024-03-23T07:29:56;5.80;;;1.70;;
75854;SDS011;64502;59.976;30.316;2024-03-23T07:32:24;4.18;;;0.93;;
75854;SDS011;64502;59.976;30.316;2024-03-23T07:34:49;5.18;;;1.20;;
75854;SDS011;64502;59.976;30.316;2024-03-23T07:37:16;6.03;;;1.73;;
75854;SDS011;64502;59.976;30.316;2024-03-23T07:39:41;6.00;;;0.98;;
75854;SDS011;64502;59.976;30.316;2024-03-23T07:42:10;5.80;;;1.60;;
75854;SDS011;64502;59.976;30.316;2024-03-23T07:44:37;4.82;;;1.33;;
75854;SDS011;64502;59.976;30.316;2024-03-23T07:47:03;3.97;;;1.05;;
75854;SDS011;64502;59.976;30.316;2024-03-23T07:49:29;4.20;;;0.73;;
75854;SDS011;64502;59.976;30.316;2024-03-23T07:51:54;5.43;;;1.30;;
75854;SDS011;64502;59.976;30.316;2024-03-23T07:54:21;4.07;;;1.45;;
75854;SDS011;64502;59.976;30.316;2024-03-23T07:56:47;6.32;;;2.10;;
75854;SDS011;64502;59.976;30.316;2024-03-23T07:59:12;3.45;;;1.20;;
75854;SDS011;64502;59.976;30.316;2024-03-23T08:01:38;7.05;;;1.98;;
75854;SDS011;64502;59.976;30.316;2024-03-23T08:04:05;3.90;;;1.50;;
75854;SDS011;64502;59.976;30.316;2024-03-23T08:06:31;3.78;;;1.52;;
75854;SDS011;64502;59.976;30.316;2024-03-23T08:08:57;8.02;;;1.50;;
75854;SDS011;64502;59.976;30.316;2024-03-23T08:11:27;4.10;;;1.05;;
75854;SDS011;64502;59.976;30.316;2024-03-23T08:13:54;5.10;;;0.95;;
75854;SDS011;64502;59.976;30.316;2024-03-23T08:16:19;3.47;;;1.17;;
75854;SDS011;64502;59.976;30.316;2024-03-23T08:18:45;6.32;;;1.40;;
75854;SDS011;64502;59.976;30.316;2024-03-23T08:21:11;4.05;;;1.60;;
75854;SDS011;64502;59.976;30.316;2024-03-23T08:26:21;3.58;;;0.82;;
75854;SDS011;64502;59.976;30.316;2024-03-23T08:28:47;4.30;;;1.10;;
75854;SDS011;64502;59.976;30.316;2024-03-23T08:31:13;2.25;;;0.75;;
75854;SDS011;64502;59.976;30.316;2024-03-23T08:33:41;3.97;;;1.30;;
75854;SDS011;64502;59.976;30.316;2024-03-23T08:36:09;4.15;;;0.77;;
75854;SDS011;64502;59.976;30.316;2024-03-23T08:38:39;5.20;;;1.13;;
75854;SDS011;64502;59.976;30.316;2024-03-23T08:41:06;3.78;;;1.02;;
75854;SDS011;64502;59.976;30.316;2024-03-23T08:43:36;4.82;;;1.00;;
75854;SDS011;64502;59.976;30.316;2024-03-23T08:46:03;4.35;;;0.80;;
75854;SDS011;64502;59.976;30.316;2024-03-23T08:48:37;2.13;;;0.50;;
75854;SDS011;64502;59.976;30.316;2024-03-23T08:51:04;3.78;;;0.52;;
75854;SDS011;64502;59.976;30.316;2024-03-23T08:56:15;3.08;;;0.98;;
75854;SDS011;64502;59.976;30.316;2024-03-23T08:58:41;4.43;;;1.33;;
75854;SDS011;64502;59.976;30.316;2024-03-23T09:01:12;5.40;;;1.10;;
75854;SDS011;64502;59.976;30.316;2024-03-23T09:03:41;4.45;;;1.02;;
75854;SDS011;64502;59.976;30.316;2024-03-23T09:06:10;5.85;;;1.10;;
75854;SDS011;64502;59.976;30.316;2024-03-23T09:08:38;4.85;;;1.88;;
75854;SDS011;64502;59.976;30.316;2024-03-23T09:11:06;4.88;;;1.15;;
75854;SDS011;64502;59.976;30.316;2024-03-23T09:13:36;4.38;;;1.15;;
75854;SDS011;64502;59.976;30.316;2024-03-23T09:16:02;4.82;;;1.45;;
75854;SDS011;64502;59.976;30.316;2024-03-23T09:18:33;4.97;;;1.60;;
75854;SDS011;64502;59.976;30.316;2024-03-23T09:21:00;7.47;;;1.70;;
75854;SDS011;64502;59.976;30.316;2024-03-23T09:23:26;5.20;;;1.90;;
75854;SDS011;64502;59.976;30.316;2024-03-23T09:25:52;5.25;;;1.85;;
75854;SDS011;64502;59.976;30.316;2024-03-23T09:28:18;4.60;;;1.83;;
75854;SDS011;64502;59.976;30.316;2024-03-23T09:30:44;4.38;;;1.30;;
75854;SDS011;64502;59.976;30.316;2024-03-23T09:33:13;5.35;;;1.75;;
75854;SDS011;64502;59.976;30.316;2024-03-23T09:35:39;3.22;;;1.58;;
75854;SDS011;64502;59.976;30.316;2024-03-23T09:38:06;3.58;;;1.25;;
75854;SDS011;64502;59.976;30.316;2024-03-23T09:40:34;5.28;;;2.00;;
75854;SDS011;64502;59.976;30.316;2024-03-23T09:43:00;5.32;;;1.98;;
75854;SDS011;64502;59.976;30.316;2024-03-23T09:45:29;5.03;;;2.30;;
75854;SDS011;64502;59.976;30.316;2024-03-23T09:47:55;5.53;;;2.33;;
75854;SDS011;64502;59.976;30.316;2024-03-23T09:50:21;5.75;;;1.55;;
75854;SDS011;64502;59.976;30.316;2024-03-23T09:52:47;3.10;;;1.58;;
75854;SDS011;64502;59.976;30.316;2024-03-23T09:55:13;3.85;;;1.83;;
75854;SDS011;64502;59.976;30.316;2024-03-23T09:57:40;3.63;;;1.63;;
75854;SDS011;64502;59.976;30.316;2024-03-23T10:00:06;4.13;;;1.40;;
75854;SDS011;64502;59.976;30.316;2024-03-23T10:02:34;3.80;;;1.50;;
75854;SDS011;64502;59.976;30.316;2024-03-23T10:05:20;4.68;;;1.63;;
75854;SDS011;64502;59.976;30.316;2024-03-23T10:07:48;2.33;;;0.95;;
75854;SDS011;64502;59.976;30.316;2024-03-23T10:10:15;3.13;;;1.65;;
75854;SDS011;64502;59.976;30.316;2024-03-23T10:12:43;4.95;;;1.70;;
75854;SDS011;64502;59.976;30.316;2024-03-23T10:15:17;5.88;;;1.63;;
75854;SDS011;64502;59.976;30.316;2024-03-23T10:17:45;4.00;;;1.25;;
75854;SDS011;64502;59.976;30.316;2024-03-23T10:20:11;4.18;;;1.73;;
75854;SDS011;64502;59.976;30.316;2024-03-23T10:22:40;3.13;;;1.17;;
75854;SDS011;64502;59.976;30.316;2024-03-23T10:25:09;2.53;;;1.38;;
75854;SDS011;64502;59.976;30.316;2024-03-23T10:30:23;2.80;;;1.10;;
75854;SDS011;64502;59.976;30.316;2024-03-23T10:32:52;2.92;;;1.00;;
75854;SDS011;64502;59.976;30.316;2024-03-23T10:35:40;4.28;;;0.98;;
75854;SDS011;64502;59.976;30.316;2024-03-23T10:38:07;2.75;;;0.80;;
75854;SDS011;64502;59.976;30.316;2024-03-23T10:40:36;2.03;;;0.68;;
75854;SDS011;64502;59.976;30.316;2024-03-23T10:43:05;2.70;;;0.90;;
75854;SDS011;64502;59.976;30.316;2024-03-23T10:45:33;2.55;;;0.80;;
75854;SDS011;64502;59.976;30.316;2024-03-23T10:47:59;3.20;;;0.90;;
75854;SDS011;64502;59.976;30.316;2024-03-23T10:50:25;4.07;;;0.70;;
75854;SDS011;64502;59.976;30.316;2024-03-23T10:52:52;1.10;;;0.40;;
75854;SDS011;64502;59.976;30.316;2024-03-23T10:55:19;1.70;;;0.50;;
75854;SDS011;64502;59.976;30.316;2024-03-23T10:57:51;3.30;;;0.90;;
75854;SDS011;64502;59.976;30.316;2024-03-23T11:00:37;2.95;;;1.05;;
75854;SDS011;64502;59.976;30.316;2024-03-23T11:06:00;3.03;;;0.75;;
75854;SDS011;64502;59.976;30.316;2024-03-23T11:08:39;2.75;;;0.80;;
75854;SDS011;64502;59.976;30.316;2024-03-23T11:11:18;2.33;;;0.93;;
75854;SDS011;64502;59.976;30.316;2024-03-23T11:13:51;3.67;;;0.90;;
75854;SDS011;64502;59.976;30.316;2024-03-23T11:16:25;3.00;;;0.60;;
75854;SDS011;64502;59.976;30.316;2024-03-23T11:22:00;1.67;;;0.50;;
75854;SDS011;64502;59.976;30.316;2024-03-23T11:24:26;2.20;;;0.45;;
75854;SDS011;64502;59.976;30.316;2024-03-23T11:29:42;1.85;;;0.88;;
75854;SDS011;64502;59.976;30.316;2024-03-23T11:32:08;1.48;;;0.60;;
75854;SDS011;64502;59.976;30.316;2024-03-23T11:34:38;1.92;;;0.47;;
75854;SDS011;64502;59.976;30.316;2024-03-23T11:37:06;1.70;;;0.60;;
75854;SDS011;64502;59.976;30.316;2024-03-23T11:39:32;2.25;;;0.60;;
75854;SDS011;64502;59.976;30.316;2024-03-23T11:41:59;2.15;;;0.60;;
75854;SDS011;64502;59.976;30.316;2024-03-23T11:44:26;1.77;;;0.40;;
75854;SDS011;64502;59.976;30.316;2024-03-23T11:46:53;1.70;;;0.50;;
75854;SDS011;64502;59.976;30.316;2024-03-23T11:51:52;3.20;;;1.00;;
75854;SDS011;64502;59.976;30.316;2024-03-23T11:54:25;2.22;;;0.73;;
75854;SDS011;64502;59.976;30.316;2024-03-23T11:59:33;2.95;;;1.30;;
75854;SDS011;64502;59.976;30.316;2024-03-23T12:01:59;3.85;;;1.00;;
75854;SDS011;64502;59.976;30.316;2024-03-23T12:04:26;3.47;;;1.20;;
75854;SDS011;64502;59.976;30.316;2024-03-23T12:07:10;2.75;;;1.05;;
75854;SDS011;64502;59.976;30.316;2024-03-23T12:09:44;5.80;;;1.50;;
75854;SDS011;64502;59.976;30.316;2024-03-23T12:14:42;5.95;;;1.95;;
75854;SDS011;64502;59.976;30.316;2024-03-23T12:17:14;3.03;;;1.27;;
75854;SDS011;64502;59.976;30.316;2024-03-23T12:19:41;3.25;;;1.42;;
75854;SDS011;64502;59.976;30.316;2024-03-23T12:22:07;3.90;;;1.77;;
75854;SDS011;64502;59.976;30.316;2024-03-23T12:24:33;2.58;;;1.13;;
75854;SDS011;64502;59.976;30.316;2024-03-23T12:27:03;3.85;;;1.60;;
75854;SDS011;64502;59.976;30.316;2024-03-23T12:29:33;3.42;;;1.30;;
75854;SDS011;64502;59.976;30.316;2024-03-23T12:32:00;2.83;;;0.70;;
75854;SDS011;64502;59.976;30.316;2024-03-23T12:34:27;4.07;;;1.52;;
75854;SDS011;64502;59.976;30.316;2024-03-23T12:36:53;2.10;;;0.70;;
75854;SDS011;64502;59.976;30.316;2024-03-23T12:39:19;3.30;;;0.95;;
75854;SDS011;64502;59.976;30.316;2024-03-23T12:41:48;2.28;;;0.90;;
75854;SDS011;64502;59.976;30.316;2024-03-23T12:44:14;2.33;;;1.05;;
75854;SDS011;64502;59.976;30.316;2024-03-23T12:46:41;2.47;;;0.90;;
75854;SDS011;64502;59.976;30.316;2024-03-23T12:49:07;5.18;;;0.60;;
75854;SDS011;64502;59.976;30.316;2024-03-23T12:51:33;2.47;;;0.70;;
75854;SDS011;64502;59.976;30.316;2024-03-23T12:53:59;1.50;;;0.38;;
75854;SDS011;64502;59.976;30.316;2024-03-23T12:59:08;1.67;;;0.30;;
75854;SDS011;64502;59.976;30.316;2024-03-23T13:01:34;1.65;;;0.40;;
75854;SDS011;64502;59.976;30.316;2024-03-23T13:04:00;1.70;;;0.55;;
75854;SDS011;64502;59.976;30.316;2024-03-23T13:06:26;1.17;;;0.17;;
75854;SDS011;64502;59.976;30.316;2024-03-23T13:08:52;1.13;;;0.20;;
75854;SDS011;64502;59.976;30.316;2024-03-23T13:11:20;1.80;;;0.47;;
75854;SDS011;64502;59.976;30.316;2024-03-23T13:13:46;2.05;;;0.60;;
75854;SDS011;64502;59.976;30.316;2024-03-23T13:16:11;1.92;;;0.43;;
75854;SDS011;64502;59.976;30.316;2024-03-23T13:18:37;1.60;;;0.55;;
75854;SDS011;64502;59.976;30.316;2024-03-23T13:21:02;2.22;;;0.68;;
75854;SDS011;64502;59.976;30.316;2024-03-23T13:23:29;1.73;;;0.55;;
75854;SDS011;64502;59.976;30.316;2024-03-23T13:25:56;1.73;;;0.50;;
75854;SDS011;64502;59.976;30.316;2024-03-23T13:28:22;4.32;;;0.60;;
75854;SDS011;64502;59.976;30.316;2024-03-23T13:33:17;1.60;;;0.50;;
75854;SDS011;64502;59.976;30.316;2024-03-23T13:35:49;2.65;;;0.70;;
75854;SDS011;64502;59.976;30.316;2024-03-23T13:38:15;1.65;;;0.40;;
75854;SDS011;64502;59.976;30.316;2024-03-23T13:40:48;4.85;;;0.63;;
75854;SDS011;64502;59.976;30.316;2024-03-23T13:43:24;3.53;;;0.70;;
75854;SDS011;64502;59.976;30.316;2024-03-23T13:45:53;2.03;;;0.80;;
75854;SDS011;64502;59.976;30.316;2024-03-23T13:48:21;2.50;;;0.73;;
75854;SDS011;64502;59.976;30.316;2024-03-23T13:51:01;2.15;;;0.50;;
75854;SDS011;64502;59.976;30.316;2024-03-23T13:53:27;2.80;;;0.55;;
75854;SDS011;64502;59.976;30.316;2024-03-23T13:55:53;1.70;;;0.60;;
75854;SDS011;64502;59.976;30.316;2024-03-23T13:58:19;2.95;;;0.75;;
75854;SDS011;64502;59.976;30.316;2024-03-23T14:00:44;1.80;;;0.45;;
75854;SDS011;64502;59.976;30.316;2024-03-23T14:03:11;2.33;;;0.17;;
75854;SDS011;64502;59.976;30.316;2024-03-23T14:05:37;1.45;;;0.50;;
75854;SDS011;64502;59.976;30.316;2024-03-23T14:08:12;1.13;;;0.30;;
75854;SDS011;64502;59.976;30.316;2024-03-23T14:10:41;0.95;;;0.20;;
75854;SDS011;64502;59.976;30.316;2024-03-23T14:13:08;1.23;;;0.22;;
75854;SDS011;64502;59.976;30.316;2024-03-23T14:15:35;2.38;;;0.25;;
75854;SDS011;64502;59.976;30.316;2024-03-23T14:18:02;2.03;;;0.30;;
75854;SDS011;64502;59.976;30.316;2024-03-23T14:20:28;1.30;;;0.40;;
75854;SDS011;64502;59.976;30.316;2024-03-23T14:22:54;1.80;;;0.22;;
75854;SDS011;64502;59.976;30.316;2024-03-23T14:25:20;2.65;;;0.32;;
75854;SDS011;64502;59.976;30.316;2024-03-23T14:27:49;2.15;;;0.43;;
75854;SDS011;64502;59.976;30.316;2024-03-23T14:32:59;2.30;;;0.70;;
75854;SDS011;64502;59.976;30.316;2024-03-23T14:35:25;1.48;;;0.40;;
75854;SDS011;64502;59.976;30.316;2024-03-23T14:37:51;1.88;;;0.50;;
75854;SDS011;64502;59.976;30.316;2024-03-23T14:40:18;1.13;;;0.40;;
75854;SDS011;64502;59.976;30.316;2024-03-23T14:45:28;1.60;;;0.57;;
75854;SDS011;64502;59.976;30.316;2024-03-23T14:47:54;1.60;;;0.50;;
75854;SDS011;64502;59.976;30.316;2024-03-23T14:50:20;1.50;;;0.30;;
75854;SDS011;64502;59.976;30.316;2024-03-23T14:52:46;1.83;;;0.60;;
75854;SDS011;64502;59.976;30.316;2024-03-23T14:55:12;1.67;;;0.32;;
75854;SDS011;64502;59.976;30.316;2024-03-23T14:57:38;1.90;;;0.50;;
75854;SDS011;64502;59.976;30.316;2024-03-23T15:00:08;6.30;;;1.00;;
75854;SDS011;64502;59.976;30.316;2024-03-23T15:02:39;2.28;;;0.60;;
75854;SDS011;64502;59.976;30.316;2024-03-23T15:05:05;1.77;;;0.52;;
75854;SDS011;64502;59.976;30.316;2024-03-23T15:10:00;2.28;;;0.40;;
75854;SDS011;64502;59.976;30.316;2024-03-23T15:15:11;2.35;;;0.43;;
75854;SDS011;64502;59.976;30.316;2024-03-23T15:17:37;3.42;;;0.70;;
75854;SDS011;64502;59.976;30.316;2024-03-23T15:20:06;3.28;;;0.63;;
75854;SDS011;64502;59.976;30.316;2024-03-23T15:22:32;1.75;;;0.55;;
75854;SDS011;64502;59.976;30.316;2024-03-23T15:24:58;2.00;;;0.60;;
75854;SDS011;64502;59.976;30.316;2024-03-23T15:27:23;4.13;;;0.95;;
75854;SDS011;64502;59.976;30.316;2024-03-23T15:29:49;2.03;;;0.40;;
75854;SDS011;64502;59.976;30.316;2024-03-23T15:32:14;1.40;;;0.50;;
75854;SDS011;64502;59.976;30.316;2024-03-23T15:34:42;2.10;;;0.70;;
75854;SDS011;64502;59.976;30.316;2024-03-23T15:37:08;1.75;;;0.40;;
75854;SDS011;64502;59.976;30.316;2024-03-23T15:39:33;1.75;;;0.40;;
75854;SDS011;64502;59.976;30.316;2024-03-23T15:41:59;2.08;;;0.80;;
75854;SDS011;64502;59.976;30.316;2024-03-23T15:44:25;1.77;;;0.38;;
75854;SDS011;64502;59.976;30.316;2024-03-23T15:46:50;1.50;;;0.55;;
75854;SDS011;64502;59.976;30.316;2024-03-23T15:49:16;2.85;;;0.60;;
75854;SDS011;64502;59.976;30.316;2024-03-23T15:51:41;2.75;;;0.50;;
75854;SDS011;64502;59.976;30.316;2024-03-23T15:54:09;2.53;;;0.88;;
75854;SDS011;64502;59.976;30.316;2024-03-23T15:56:34;2.53;;;0.98;;
75854;SDS011;64502;59.976;30.316;2024-03-23T15:59:00;2.05;;;0.55;;
75854;SDS011;64502;59.976;30.316;2024-03-23T16:01:34;2.70;;;0.60;;
75854;SDS011;64502;59.976;30.316;2024-03-23T16:04:00;2.35;;;1.08;;
75854;SDS011;64502;59.976;30.316;2024-03-23T16:06:26;2.55;;;0.70;;
75854;SDS011;64502;59.976;30.316;2024-03-23T16:08:52;3.25;;;0.70;;
75854;SDS011;64502;59.976;30.316;2024-03-23T16:11:18;2.78;;;0.65;;
75854;SDS011;64502;59.976;30.316;2024-03-23T16:13:43;2.40;;;1.00;;